Time;durP1;ratioP1;P1;durP2;ratioP2;P2;SDS_P1;SDS_P2;PMS_P1;PMS_P2;Temp;Humidity;BMP_temperature;BMP_pressure;BME280_temperature;BME280_humidity;BME280_pressure;Samples;Min_cycle;Max_cycle;Signal;HPM_P1;HPM_P2
2022/09/16 00:01:24;;;;;;;0.68;0.20;;;11.30;99.90;;;;;;4752133;30;20414;-84
2022/09/16 00:03:54;;;;;;;0.70;0.20;;;11.20;99.90;;;;;;4738828;30;20085;-83
2022/09/16 00:06:21;;;;;;;0.93;0.20;;;11.50;99.90;;;;;;4754423;30;20498;-83
2022/09/16 00:08:48;;;;;;;0.08;0.05;;;10.90;99.90;;;;;;4755618;30;20059;-82
2022/09/16 00:11:15;;;;;;;0.25;0.20;;;11.30;99.90;;;;;;4769275;30;20043;-82
2022/09/16 00:13:41;;;;;;;0.25;0.10;;;11.20;99.90;;;;;;4756580;30;20059;-83
2022/09/16 00:16:12;;;;;;;0.30;0.20;;;11.30;99.90;;;;;;4741236;30;20058;-83
2022/09/16 00:18:38;;;;;;;1.50;0.20;;;11.20;99.90;;;;;;4755154;30;20090;-85
2022/09/16 00:21:07;;;;;;;0.98;0.20;;;11.30;99.90;;;;;;4769563;30;20056;-82
2022/09/16 00:23:33;;;;;;;0.63;0.10;;;11.30;99.90;;;;;;4757973;30;20513;-83
2022/09/16 00:25:59;;;;;;;1.13;0.10;;;11.20;99.90;;;;;;4756884;30;20055;-82
2022/09/16 00:28:25;;;;;;;0.95;0.20;;;11.30;99.90;;;;;;4757413;30;20439;-84
2022/09/16 00:30:51;;;;;;;0.63;0.20;;;11.30;99.90;;;;;;4756252;30;20502;-84
2022/09/16 00:33:17;;;;;;;0.10;0.10;;;11.60;99.90;;;;;;4755043;30;20044;-88
2022/09/16 00:35:43;;;;;;;0.10;0.10;;;11.30;99.90;;;;;;4753869;30;20056;-85
2022/09/16 00:38:09;;;;;;;0.08;0.08;;;11.30;99.90;;;;;;4753686;30;20052;-84
2022/09/16 00:40:42;;;;;;;1.60;0.10;;;11.60;99.90;;;;;;4753633;30;20086;-83
2022/09/16 00:43:11;;;;;;;0.10;0.10;;;11.90;99.90;;;;;;4766105;30;20421;-83
2022/09/16 00:45:37;;;;;;;0.10;0.10;;;11.60;99.90;;;;;;4771788;30;20047;-85
2022/09/16 00:48:06;;;;;;;2.03;0.10;;;11.30;99.90;;;;;;4749857;30;20083;-85
2022/09/16 00:50:47;;;;;;;1.02;0.05;;;12.30;99.90;;;;;;4753983;30;20422;-83
2022/09/16 00:53:36;;;;;;;0.20;0.10;;;11.20;99.90;;;;;;4754839;30;20527;-83
2022/09/16 00:56:05;;;;;;;1.13;0.10;;;11.90;99.90;;;;;;4754536;30;20128;-87
2022/09/16 00:58:42;;;;;;;0.35;0.10;;;11.20;99.90;;;;;;4754420;30;20498;-88
2022/09/16 01:01:09;;;;;;;1.55;0.30;;;11.10;99.90;;;;;;4754291;30;20189;-88
2022/09/16 01:03:43;;;;;;;0.30;0.10;;;11.50;99.90;;;;;;4754424;30;20051;-88
2022/09/16 01:06:11;;;;;;;0.30;0.10;;;11.10;99.90;;;;;;4753425;30;20052;-87
2022/09/16 01:08:37;;;;;;;1.00;0.10;;;11.10;99.90;;;;;;4737160;30;20055;-84
2022/09/16 01:11:02;;;;;;;0.40;0.10;;;11.60;99.90;;;;;;4753360;30;20056;-83
2022/09/16 01:13:28;;;;;;;1.75;0.38;;;11.10;99.90;;;;;;4753202;30;20118;-88
2022/09/16 01:16:28;;;;;;;1.00;0.10;;;11.90;99.90;;;;;;4739913;30;20412;-87
2022/09/16 01:19:01;;;;;;;0.13;0.10;;;11.10;99.90;;;;;;4759098;30;20056;-86
2022/09/16 01:21:26;;;;;;;0.40;0.20;;;11.70;99.90;;;;;;4755584;30;20120;-87
2022/09/16 01:24:13;;;;;;;0.57;0.10;;;11.10;99.90;;;;;;4755858;30;20483;-86
2022/09/16 01:27:29;;;;;;;0.10;0.10;;;11.10;99.90;;;;;;4769620;30;20052;-85
2022/09/16 01:30:15;;;;;;;3.70;0.80;;;11.10;99.90;;;;;;4758349;30;20056;-88
2022/09/16 01:33:03;;;;;;;0.47;0.13;;;11.10;99.90;;;;;;4762397;30;20465;-86
2022/09/16 01:35:35;;;;;;;1.52;0.25;;;11.10;99.90;;;;;;4753912;30;20110;-84
2022/09/16 01:45:22;;;;;;;0.30;0.10;;;11.10;99.90;;;;;;4738105;30;20052;-88
2022/09/16 01:48:36;;;;;;;0.88;0.20;;;11.10;99.90;;;;;;4753295;30;20060;-86
2022/09/16 01:51:10;;;;;;;1.00;0.20;;;11.20;99.90;;;;;;4701734;30;20492;-87
2022/09/16 01:53:50;;;;;;;0.30;0.10;;;11.00;99.90;;;;;;4726524;30;20045;-86
2022/09/16 01:56:25;;;;;;;1.23;0.10;;;11.00;99.90;;;;;;4719699;30;20105;-89
2022/09/16 01:59:00;;;;;;;2.35;0.20;;;11.00;99.90;;;;;;4734770;30;20070;-89
2022/09/16 02:01:35;;;;;;;3.22;0.22;;;11.60;99.90;;;;;;4733501;30;20072;-87
2022/09/16 02:04:06;;;;;;;1.73;0.20;;;11.60;99.90;;;;;;4734096;30;20052;-85
2022/09/16 02:06:34;;;;;;;0.93;0.20;;;11.00;99.90;;;;;;4736816;30;20443;-83
2022/09/16 02:09:06;;;;;;;0.20;0.20;;;11.00;99.90;;;;;;4724133;30;20092;-84
2022/09/16 02:11:34;;;;;;;0.55;0.20;;;11.00;99.90;;;;;;4735285;30;20143;-85
2022/09/16 02:14:07;;;;;;;0.10;0.10;;;11.00;99.90;;;;;;4719765;30;20510;-89
2022/09/16 02:16:48;;;;;;;0.98;0.20;;;11.50;99.90;;;;;;4721141;30;20088;-84
2022/09/16 02:19:26;;;;;;;0.20;0.10;;;10.90;99.90;;;;;;4719120;30;20103;-87
2022/09/16 02:21:55;;;;;;;1.42;0.17;;;10.90;99.90;;;;;;4718795;30;20056;-87
2022/09/16 02:24:23;;;;;;;0.30;0.10;;;11.60;99.90;;;;;;4732524;30;20061;-89
2022/09/16 02:26:56;;;;;;;0.50;0.10;;;11.70;99.90;;;;;;4745141;30;20064;-90
2022/09/16 02:29:25;;;;;;;0.20;0.20;;;11.00;99.90;;;;;;4753854;30;20056;-92
2022/09/16 02:31:57;;;;;;;1.02;0.10;;;10.80;99.90;;;;;;4753076;30;20096;-88
2022/09/16 02:34:36;;;;;;;0.75;0.20;;;11.10;99.90;;;;;;4752987;30;20044;-91
2022/09/16 02:37:12;;;;;;;1.75;0.20;;;10.90;99.90;;;;;;4754624;30;20056;-91
2022/09/16 02:39:39;;;;;;;;;;;10.90;99.90;;;;;;4753719;30;20056;-91
2022/09/16 02:42:06;;;;;;;0.10;0.10;;;10.90;99.90;;;;;;4753062;30;19930;-92
2022/09/16 02:44:33;;;;;;;1.98;0.13;;;10.90;99.90;;;;;;4754823;30;20052;-92
2022/09/16 02:47:09;;;;;;;1.92;0.20;;;11.10;99.90;;;;;;4749992;30;20127;-91
2022/09/16 02:50:06;;;;;;;2.10;0.20;;;10.90;99.90;;;;;;4770271;30;20391;-90
2022/09/16 02:52:42;;;;;;;0.52;0.20;;;10.90;99.90;;;;;;4770117;30;20044;-90
2022/09/16 02:55:10;;;;;;;2.45;0.30;;;10.90;99.90;;;;;;4769910;30;20054;-90
2022/09/16 02:57:37;;;;;;;1.60;0.80;;;10.90;99.90;;;;;;4766714;30;20056;-90
2022/09/16 03:00:04;;;;;;;1.65;0.20;;;10.90;99.90;;;;;;4770275;30;20059;-91
2022/09/16 03:02:33;;;;;;;2.17;0.28;;;10.90;99.90;;;;;;4753880;30;20537;-88
2022/09/16 03:04:59;;;;;;;2.40;0.10;;;11.10;99.90;;;;;;4770471;30;20044;-89
2022/09/16 03:07:25;;;;;;;0.77;0.20;;;10.90;99.90;;;;;;4749691;30;20048;-89
2022/09/16 03:09:51;;;;;;;0.70;0.20;;;10.90;99.90;;;;;;4752166;30;20052;-89
2022/09/16 03:12:56;;;;;;;0.17;0.10;;;11.80;99.90;;;;;;4751971;30;20044;-87
2022/09/16 03:15:57;;;;;;;0.80;0.30;;;10.80;99.90;;;;;;4736201;30;20067;-89
2022/09/16 03:18:57;;;;;;;1.00;0.20;;;10.80;99.90;;;;;;4751555;30;20048;-87
2022/09/16 03:21:44;;;;;;;1.35;0.30;;;10.80;99.90;;;;;;4752049;30;20423;-87
2022/09/16 03:24:26;;;;;;;2.88;0.17;;;10.70;99.90;;;;;;4759241;30;20059;-90
2022/09/16 03:27:05;;;;;;;1.38;0.20;;;10.70;99.90;;;;;;4754036;30;20039;-92
2022/09/16 03:29:47;;;;;;;0.60;0.10;;;10.70;99.90;;;;;;4752815;30;20391;-87
2022/09/16 03:32:55;;;;;;;0.90;0.28;;;10.60;99.90;;;;;;4769845;30;20048;-88
2022/09/16 03:35:30;;;;;;;1.45;0.28;;;10.60;99.90;;;;;;4731474;30;20123;-92
2022/09/16 03:37:58;;;;;;;1.57;0.30;;;10.60;99.90;;;;;;4721129;30;20056;-91
2022/09/16 03:44:03;;;;;;;1.63;0.20;;;10.50;99.90;;;;;;4724403;30;20051;-92
2022/09/16 03:46:29;;;;;;;3.17;0.65;;;11.20;99.90;;;;;;4721364;30;20064;-88
2022/09/16 03:48:56;;;;;;;0.85;0.10;;;11.20;99.90;;;;;;4735833;30;20056;-89
2022/09/16 03:51:22;;;;;;;2.53;0.30;;;10.50;99.90;;;;;;4733566;30;20068;-91
2022/09/16 03:53:49;;;;;;;2.58;0.30;;;10.40;99.90;;;;;;4735914;30;20071;-92
2022/09/16 03:56:15;;;;;;;3.30;0.15;;;10.40;99.90;;;;;;4735952;30;20053;-92
2022/09/16 03:58:41;;;;;;;1.80;0.17;;;10.30;99.90;;;;;;4715061;30;20221;-88
2022/09/16 04:01:06;;;;;;;2.30;0.20;;;10.30;99.90;;;;;;4704527;30;20053;-91
2022/09/16 04:03:32;;;;;;;2.38;0.30;;;10.30;99.90;;;;;;4718242;30;20049;-89
2022/09/16 04:05:58;;;;;;;2.63;0.20;;;10.70;99.90;;;;;;4745973;30;20194;-86
2022/09/16 04:08:24;;;;;;;0.80;0.30;;;11.10;99.90;;;;;;4768750;30;20048;-87
2022/09/16 04:11:01;;;;;;;0.85;0.20;;;10.20;99.90;;;;;;4756176;30;20048;-90
2022/09/16 04:13:32;;;;;;;1.90;0.15;;;10.90;99.90;;;;;;4763819;30;20052;-90
2022/09/16 04:15:58;;;;;;;2.15;0.30;;;10.20;99.90;;;;;;4756057;30;20056;-86
2022/09/16 04:18:24;;;;;;;0.47;0.30;;;10.20;99.90;;;;;;4755202;30;20060;-87
2022/09/16 04:20:54;;;;;;;0.63;0.13;;;9.60;99.90;;;;;;4762216;30;20120;-91
2022/09/16 04:23:22;;;;;;;0.45;0.13;;;11.00;99.90;;;;;;4755485;30;20108;-90
2022/09/16 04:25:57;;;;;;;0.22;0.20;;;10.90;99.90;;;;;;4756874;30;20060;-89
2022/09/16 04:28:23;;;;;;;1.33;0.20;;;10.10;99.90;;;;;;4760795;30;20079;-88
2022/09/16 04:30:49;;;;;;;1.67;0.20;;;10.10;99.90;;;;;;4755066;30;20056;-85
2022/09/16 04:33:14;;;;;;;2.83;0.28;;;10.00;99.90;;;;;;4756050;30;20056;-89
2022/09/16 04:35:40;;;;;;;1.13;0.20;;;10.80;99.90;;;;;;4739836;30;20518;-86
2022/09/16 04:38:06;;;;;;;3.78;0.40;;;10.20;99.90;;;;;;4740873;30;20059;-85
2022/09/16 04:44:13;;;;;;;1.77;0.20;;;9.90;99.90;;;;;;4756748;30;20402;-87
2022/09/16 04:46:39;;;;;;;0.88;0.20;;;11.00;99.90;;;;;;4767224;30;20084;-89
2022/09/16 04:49:05;;;;;;;0.55;0.20;;;11.00;99.90;;;;;;4756035;30;20044;-92
2022/09/16 04:51:31;;;;;;;1.85;0.20;;;10.40;99.90;;;;;;4739250;30;20052;-86
2022/09/16 04:53:58;;;;;;;2.13;0.30;;;10.10;99.90;;;;;;4755390;30;20052;-88
2022/09/16 04:56:30;;;;;;;0.70;0.20;;;9.90;99.90;;;;;;4745303;30;20052;-83
2022/09/16 04:58:59;;;;;;;0.30;0.10;;;9.90;99.90;;;;;;4760963;30;20567;-89
2022/09/16 05:01:28;;;;;;;2.30;0.20;;;10.00;99.90;;;;;;4747469;30;20059;-91
2022/09/16 05:03:58;;;;;;;1.17;0.22;;;9.80;99.90;;;;;;4755401;30;20486;-84
2022/09/16 05:06:31;;;;;;;0.50;0.20;;;10.30;99.90;;;;;;4755663;30;20090;-85
2022/09/16 05:08:59;;;;;;;2.22;0.25;;;9.80;99.90;;;;;;4759957;30;20075;-89
2022/09/16 05:11:30;;;;;;;1.60;0.10;;;9.80;99.90;;;;;;4756462;30;20115;-89
2022/09/16 05:14:01;;;;;;;0.25;0.20;;;9.80;99.90;;;;;;4756893;30;20055;-88
2022/09/16 05:16:28;;;;;;;0.55;0.20;;;9.80;99.90;;;;;;4770137;30;20114;-90
2022/09/16 05:18:56;;;;;;;0.45;0.20;;;10.00;99.90;;;;;;4772426;30;20064;-91
2022/09/16 05:21:24;;;;;;;0.40;0.10;;;10.50;99.90;;;;;;4757422;30;20469;-88
2022/09/16 05:23:50;;;;;;;0.45;0.10;;;9.80;99.90;;;;;;4739376;30;20086;-91
2022/09/16 05:26:22;;;;;;;2.05;0.20;;;9.80;99.90;;;;;;4754744;30;20052;-84
2022/09/16 05:28:49;;;;;;;3.63;0.50;;;9.80;99.90;;;;;;4738740;30;20048;-88
2022/09/16 05:31:16;;;;;;;3.92;0.70;;;10.10;99.90;;;;;;4760549;30;20048;-86
2022/09/16 05:33:46;;;;;;;4.15;0.50;;;10.00;99.90;;;;;;4771978;30;20112;-87
2022/09/16 05:36:15;;;;;;;1.75;0.30;;;10.50;99.90;;;;;;4772888;30;20054;-87
2022/09/16 05:38:44;;;;;;;3.08;0.30;;;11.10;99.90;;;;;;4774213;30;20055;-89
2022/09/16 05:41:10;;;;;;;3.55;0.60;;;10.20;99.90;;;;;;4773462;30;20052;-91
2022/09/16 05:43:36;;;;;;;3.35;0.40;;;10.40;99.90;;;;;;4774408;30;20059;-88
2022/09/16 05:46:03;;;;;;;1.70;0.30;;;10.40;99.90;;;;;;4764780;30;20056;-92
2022/09/16 05:48:29;;;;;;;2.03;0.40;;;10.50;99.90;;;;;;4754073;30;20131;-91
2022/09/16 05:51:00;;;;;;;4.82;0.40;;;10.60;99.90;;;;;;4753970;30;20094;-88
2022/09/16 05:53:27;;;;;;;1.17;0.30;;;10.60;99.90;;;;;;4738655;30;20044;-90
2022/09/16 05:56:00;;;;;;;0.60;0.20;;;10.80;99.90;;;;;;4753872;30;20059;-89
2022/09/16 05:58:28;;;;;;;1.73;0.20;;;10.60;99.90;;;;;;4754201;30;20140;-88
2022/09/16 06:01:02;;;;;;;4.00;1.38;;;10.60;99.90;;;;;;4755873;30;20127;-91
2022/09/16 06:03:28;;;;;;;0.85;0.20;;;10.60;99.90;;;;;;4747041;30;20059;-90
2022/09/16 06:06:02;;;;;;;1.95;0.30;;;10.60;99.90;;;;;;4765088;30;20072;-89
2022/09/16 06:08:29;;;;;;;0.85;0.20;;;10.70;99.90;;;;;;4761114;30;20077;-91
2022/09/16 06:10:55;;;;;;;0.25;0.10;;;10.60;99.90;;;;;;4754902;30;20123;-90
2022/09/16 06:13:21;;;;;;;1.42;0.20;;;10.90;99.90;;;;;;4755146;30;20044;-92
2022/09/16 06:15:49;;;;;;;2.38;0.60;;;10.70;99.90;;;;;;4753566;30;20052;-91
2022/09/16 06:18:16;;;;;;;0.30;0.10;;;11.70;99.90;;;;;;4739017;30;20044;-85
2022/09/16 06:20:41;;;;;;;0.20;0.10;;;10.50;99.90;;;;;;4747097;30;20200;-91
2022/09/16 06:23:07;;;;;;;0.75;0.10;;;11.50;99.90;;;;;;4753883;30;20135;-87
2022/09/16 06:25:33;;;;;;;1.77;0.20;;;10.90;99.90;;;;;;4753174;30;20067;-87
2022/09/16 06:28:14;;;;;;;1.08;0.20;;;10.70;99.90;;;;;;4736904;30;20567;-88
2022/09/16 06:30:40;;;;;;;2.25;0.20;;;10.70;99.90;;;;;;4736418;30;20075;-87
2022/09/16 06:33:08;;;;;;;0.40;0.10;;;10.80;99.90;;;;;;4736445;30;20052;-89
2022/09/16 06:35:34;;;;;;;0.10;0.10;;;10.90;99.90;;;;;;4763081;30;20748;-88
2022/09/16 06:38:00;;;;;;;1.20;0.20;;;11.00;99.90;;;;;;4745265;30;20052;-90
2022/09/16 06:44:07;;;;;;;1.60;0.30;;;10.90;99.90;;;;;;4770217;30;20050;-93
2022/09/16 06:46:36;;;;;;;1.38;0.30;;;11.30;99.90;;;;;;4771320;30;20047;-87
2022/09/16 06:49:05;;;;;;;2.72;0.38;;;11.30;99.90;;;;;;4756625;30;20059;-88
2022/09/16 06:51:31;;;;;;;4.32;0.40;;;11.40;99.90;;;;;;4756806;30;20092;-90
2022/09/16 07:01:14;;;;;;;2.92;0.50;;;12.20;99.90;;;;;;4775040;30;20113;-91
2022/09/16 07:03:43;;;;;;;2.75;0.60;;;12.40;99.90;;;;;;4774177;30;20059;-90
2022/09/16 07:06:10;;;;;;;3.42;0.28;;;12.70;99.90;;;;;;4756089;30;20122;-89
2022/09/16 07:08:37;;;;;;;1.52;0.40;;;12.70;99.90;;;;;;4768761;30;20056;-91
2022/09/16 07:14:39;;;;;;;3.80;0.30;;;12.90;99.90;;;;;;4757260;30;20520;-92
2022/09/16 07:17:17;;;;;;;5.45;0.50;;;13.00;99.90;;;;;;4757877;24;20089;-87
2022/09/16 07:20:10;;;;;;;4.57;0.40;;;13.00;99.90;;;;;;4759018;30;20451;-90
2022/09/16 07:22:38;;;;;;;5.63;0.47;;;13.10;99.90;;;;;;4741764;30;20048;-88
2022/09/16 07:29:13;;;;;;;;;;;;;;;;;;;;;
2022/09/16 07:31:47;;;;;;;3.92;0.50;;;13.20;99.90;;;;;;4706885;30;20057;-91
2022/09/16 07:52:28;;;;;;;11.23;0.60;;;12.60;99.90;;;;;;4928716;24;20048;-89
2022/09/16 07:54:56;;;;;;;5.57;1.25;;;12.80;99.90;;;;;;4794889;29;20089;-85
2022/09/16 07:57:22;;;;;;;9.45;0.73;;;12.90;99.90;;;;;;4779169;30;20085;-87
2022/09/16 07:59:49;;;;;;;2.33;0.50;;;13.00;99.90;;;;;;4762439;29;20043;-87
2022/09/16 08:02:15;;;;;;;5.28;0.40;;;13.10;99.90;;;;;;4779553;30;20058;-85
2022/09/16 08:04:42;;;;;;;5.57;0.50;;;13.30;99.90;;;;;;4779225;30;20044;-86
2022/09/16 08:07:08;;;;;;;9.23;0.65;;;13.40;99.90;;;;;;4776245;30;20123;-90
2022/09/16 08:09:34;;;;;;;4.68;0.57;;;13.90;99.90;;;;;;4757455;30;20099;-84
2022/09/16 08:12:03;;;;;;;6.13;0.85;;;13.80;99.90;;;;;;4728423;30;20064;-84
2022/09/16 08:14:37;;;;;;;7.60;0.77;;;14.10;99.90;;;;;;4738983;30;20095;-84
2022/09/16 08:17:06;;;;;;;4.78;0.57;;;14.40;99.90;;;;;;4739238;30;20131;-84
2022/09/16 08:19:32;;;;;;;5.82;0.60;;;14.40;99.90;;;;;;4739122;30;20140;-84
2022/09/16 08:21:58;;;;;;;4.18;0.40;;;14.60;99.90;;;;;;4753999;30;20139;-84
2022/09/16 08:24:24;;;;;;;5.78;0.40;;;14.60;99.90;;;;;;4738764;30;20448;-85
2022/09/16 08:26:49;;;;;;;2.40;0.50;;;14.70;99.90;;;;;;4768183;30;20052;-84
2022/09/16 08:29:17;;;;;;;4.30;0.35;;;14.90;99.90;;;;;;4772367;30;20141;-85
2022/09/16 08:31:43;;;;;;;4.03;0.30;;;15.00;99.90;;;;;;4772501;30;20056;-84
2022/09/16 08:34:09;;;;;;;2.15;0.40;;;15.30;99.90;;;;;;4741552;30;20047;-84
2022/09/16 08:36:35;;;;;;;5.38;0.50;;;15.50;99.90;;;;;;4756145;30;20063;-84
2022/09/16 08:39:03;;;;;;;4.15;0.60;;;15.40;99.90;;;;;;4756445;30;20047;-85
2022/09/16 08:41:44;;;;;;;5.85;0.70;;;15.30;99.90;;;;;;4752047;30;20043;-90
2022/09/16 08:44:30;;;;;;;4.72;0.30;;;15.70;99.90;;;;;;4756454;30;20056;-87
2022/09/16 08:47:08;;;;;;;4.47;0.57;;;15.90;99.90;;;;;;4772561;30;20059;-89
2022/09/16 08:49:42;;;;;;;3.80;0.50;;;16.00;99.90;;;;;;4772401;30;20061;-87
2022/09/16 08:52:17;;;;;;;7.50;0.57;;;15.80;99.90;;;;;;4771992;30;20104;-88
2022/09/16 08:54:51;;;;;;;3.63;0.60;;;15.80;99.90;;;;;;4748614;30;20055;-90
2022/09/16 08:57:21;;;;;;;8.85;0.60;;;15.80;99.90;;;;;;4738242;30;20063;-87
2022/09/16 08:59:57;;;;;;;8.07;0.88;;;15.90;99.90;;;;;;4754385;30;20167;-88
2022/09/16 09:02:41;;;;;;;10.15;0.70;;;16.00;99.90;;;;;;4743781;30;20131;-89
2022/09/16 09:05:22;;;;;;;5.88;0.90;;;16.40;99.90;;;;;;4755533;30;20088;-89
2022/09/16 09:08:12;;;;;;;6.03;0.47;;;16.60;99.90;;;;;;4771063;30;20197;-89
2022/09/16 09:10:49;;;;;;;5.18;0.52;;;16.30;99.90;;;;;;4755914;30;20150;-88
2022/09/16 09:13:24;;;;;;;4.47;0.40;;;16.20;99.90;;;;;;4772263;30;20094;-86
2022/09/16 09:16:13;;;;;;;6.10;1.02;;;15.80;99.90;;;;;;4755610;30;20058;-87
2022/09/16 09:18:46;;;;;;;3.83;0.50;;;15.70;99.90;;;;;;4755680;30;20059;-88
2022/09/16 09:21:30;;;;;;;5.15;0.70;;;15.70;99.90;;;;;;4740185;30;20059;-87
2022/09/16 09:24:07;;;;;;;2.42;0.28;;;16.20;99.90;;;;;;4738162;30;20491;-87
2022/09/16 09:26:45;;;;;;;3.83;0.77;;;16.20;98.20;;;;;;4737325;30;20056;-88
2022/09/16 09:29:42;;;;;;;4.63;0.50;;;16.30;98.00;;;;;;4745326;30;20051;-88
2022/09/16 09:32:26;;;;;;;4.25;0.40;;;16.50;97.50;;;;;;4755202;30;20051;-87
2022/09/16 09:35:29;;;;;;;2.33;0.43;;;16.40;98.50;;;;;;4770814;30;20409;-88
2022/09/16 09:38:16;;;;;;;3.58;0.40;;;16.50;99.80;;;;;;4718591;30;20110;-88
2022/09/16 09:40:45;;;;;;;5.40;0.60;;;16.30;99.40;;;;;;4718497;30;20052;-87
2022/09/16 09:43:50;;;;;;;;;;;;;;;;;;;;;
2022/09/16 09:46:43;;;;;;;4.47;0.40;;;16.90;97.90;;;;;;4698096;30;20072;-89
2022/09/16 09:49:27;;;;;;;;;;;16.60;97.50;;;;;;4685194;30;20054;-88
2022/09/16 09:52:12;;;;;;;3.42;0.63;;;16.50;98.50;;;;;;4683364;30;19927;-88
2022/09/16 09:54:50;;;;;;;5.53;0.47;;;16.50;99.90;;;;;;4698193;30;20177;-88
2022/09/16 09:57:39;;;;;;;2.17;0.20;;;17.00;99.90;;;;;;4684473;30;20069;-88
2022/09/16 10:00:20;;;;;;;2.35;1.20;;;16.40;99.90;;;;;;4714698;30;20099;-86
2022/09/16 10:03:19;;;;;;;3.78;0.43;;;16.50;99.90;;;;;;4708424;30;20096;-89
2022/09/16 10:06:00;;;;;;;8.32;0.43;;;16.60;99.90;;;;;;4701630;30;20056;-87
2022/09/16 10:08:34;;;;;;;2.75;0.70;;;17.00;99.90;;;;;;4700827;30;20522;-83
2022/09/16 10:14:48;;;;;;;4.38;0.40;;;17.30;99.90;;;;;;4733732;30;20628;-85
2022/09/16 10:17:17;;;;;;;8.07;0.70;;;17.60;98.60;;;;;;4724677;30;20605;-86
2022/09/16 10:20:01;;;;;;;5.22;0.50;;;17.70;98.90;;;;;;4750438;30;20627;-86
2022/09/16 10:22:29;;;;;;;6.70;0.60;;;17.80;98.00;;;;;;4735374;30;20098;-84
2022/09/16 10:25:00;;;;;;;5.53;0.50;;;17.60;97.70;;;;;;4753377;30;20052;-84
2022/09/16 10:27:34;;;;;;;1.48;0.30;;;17.50;97.30;;;;;;4769710;30;20056;-84
2022/09/16 10:30:14;;;;;;;3.80;0.32;;;17.40;98.00;;;;;;4739534;30;20054;-85
2022/09/16 10:33:02;;;;;;;5.05;0.50;;;17.60;98.60;;;;;;4746233;30;20142;-85
2022/09/16 10:35:33;;;;;;;5.93;0.40;;;17.80;98.80;;;;;;4737582;30;20048;-85
2022/09/16 10:38:04;;;;;;;6.93;0.60;;;18.00;98.10;;;;;;4764062;30;20055;-86
2022/09/16 10:40:33;;;;;;;6.25;0.85;;;18.00;97.10;;;;;;4754081;30;20498;-86
2022/09/16 10:43:05;;;;;;;2.83;0.50;;;17.90;96.30;;;;;;4769115;30;20131;-85
2022/09/16 10:45:36;;;;;;;4.43;0.50;;;17.70;97.10;;;;;;4771528;30;20044;-85
2022/09/16 10:48:15;;;;;;;6.72;0.55;;;17.50;98.10;;;;;;4756605;30;20402;-87
2022/09/16 10:51:05;;;;;;;7.32;0.50;;;17.70;96.90;;;;;;4754136;30;20040;-88
2022/09/16 10:53:48;;;;;;;4.93;0.47;;;17.70;96.10;;;;;;4755704;30;20063;-89
2022/09/16 10:56:20;;;;;;;7.57;1.30;;;17.70;96.40;;;;;;4739769;30;20064;-86
2022/09/16 10:58:45;;;;;;;3.40;0.50;;;17.90;95.80;;;;;;4769438;30;20052;-85
2022/09/16 11:01:36;;;;;;;6.45;1.40;;;18.00;95.70;;;;;;4757347;30;20186;-88
2022/09/16 11:04:20;;;;;;;6.93;0.88;;;18.00;96.10;;;;;;4757238;30;20061;-87
2022/09/16 11:07:04;;;;;;;5.75;0.73;;;17.70;97.20;;;;;;4768302;30;20051;-86
2022/09/16 11:10:08;;;;;;;4.55;0.50;;;17.40;98.30;;;;;;4766291;30;20059;-88
2022/09/16 11:12:39;;;;;;;5.60;0.70;;;17.00;99.90;;;;;;4686645;30;20062;-86
2022/09/16 11:15:41;;;;;;;4.43;0.60;;;17.00;99.90;;;;;;4686529;30;20058;-86
2022/09/16 11:18:28;;;;;;;5.82;0.60;;;17.40;99.90;;;;;;4693787;30;20051;-87
2022/09/16 11:21:00;;;;;;;9.05;0.50;;;16.80;99.90;;;;;;4700771;30;20476;-85
2022/09/16 11:23:32;;;;;;;10.07;0.57;;;17.10;99.90;;;;;;4717434;30;20458;-85
2022/09/16 11:26:03;;;;;;;6.22;0.70;;;17.30;99.40;;;;;;4718235;30;20061;-87
2022/09/16 11:28:55;;;;;;;5.32;0.85;;;17.60;97.70;;;;;;4716079;30;20057;-87
2022/09/16 11:31:46;;;;;;;8.82;0.90;;;17.90;94.70;;;;;;4678013;30;20471;-85
2022/09/16 11:34:18;;;;;;;4.03;0.65;;;18.10;93.50;;;;;;4654669;30;20066;-86
2022/09/16 11:37:09;;;;;;;6.88;0.90;;;18.10;94.00;;;;;;4668902;30;20108;-85
2022/09/16 11:39:57;;;;;;;10.23;0.95;;;18.00;94.70;;;;;;4668597;30;20144;-85
2022/09/16 11:42:45;;;;;;;8.95;0.85;;;18.10;95.00;;;;;;4668615;30;20066;-85
2022/09/16 11:45:45;;;;;;;5.10;0.60;;;18.20;94.90;;;;;;4668803;30;20042;-85
2022/09/16 11:48:23;;;;;;;6.15;0.60;;;18.00;96.20;;;;;;4735001;30;20532;-85
2022/09/16 11:51:11;;;;;;;6.45;0.70;;;18.10;95.90;;;;;;4720412;30;20507;-86
2022/09/16 11:53:55;;;;;;;8.30;1.25;;;17.90;97.60;;;;;;4735240;30;20392;-84
2022/09/16 11:56:36;;;;;;;7.30;0.68;;;17.80;95.70;;;;;;4733940;30;20139;-86
2022/09/16 11:59:04;;;;;;;7.63;1.00;;;17.80;95.80;;;;;;4720697;30;20059;-85
2022/09/16 12:01:37;;;;;;;7.32;1.00;;;17.70;96.50;;;;;;4720048;30;20190;-87
2022/09/16 12:04:18;;;;;;;8.93;0.88;;;17.60;97.10;;;;;;4734769;30;20056;-86
2022/09/16 12:07:13;;;;;;;5.65;0.68;;;17.70;97.60;;;;;;4705789;30;20063;-85
2022/09/16 12:09:47;;;;;;;10.55;1.73;;;17.40;98.40;;;;;;4738310;30;20094;-86
2022/09/16 12:12:24;;;;;;;7.82;0.85;;;17.70;95.80;;;;;;4753191;30;20052;-85
2022/09/16 12:15:06;;;;;;;6.65;0.80;;;17.70;94.60;;;;;;4738406;30;20052;-85
2022/09/16 12:17:41;;;;;;;7.72;0.95;;;17.50;95.40;;;;;;4753395;30;20453;-86
2022/09/16 12:20:30;;;;;;;8.35;0.93;;;17.60;93.80;;;;;;4754275;30;20048;-87
2022/09/16 12:23:16;;;;;;;5.07;1.08;;;17.80;94.10;;;;;;4738105;30;20095;-86
2022/09/16 12:25:47;;;;;;;8.38;1.13;;;17.10;95.20;;;;;;4740859;30;20062;-85
2022/09/16 12:28:25;;;;;;;5.00;1.38;;;17.70;95.30;;;;;;4752448;30;20126;-85
2022/09/16 12:31:30;;;;;;;6.65;0.80;;;17.70;95.60;;;;;;4745648;30;20052;-86
2022/09/16 12:34:09;;;;;;;5.18;0.70;;;17.80;95.70;;;;;;4719842;30;20064;-86
2022/09/16 12:36:43;;;;;;;5.80;0.65;;;17.70;95.70;;;;;;4719745;30;20064;-86
2022/09/16 12:39:17;;;;;;;1.98;0.40;;;17.30;96.40;;;;;;4714141;30;20581;-87
2022/09/16 12:42:14;;;;;;;7.25;0.70;;;17.20;96.40;;;;;;4688414;30;20057;-88
2022/09/16 12:48:30;;;;;;;4.68;0.50;;;17.20;96.50;;;;;;4702136;30;20087;-85
2022/09/16 12:50:57;;;;;;;6.32;0.73;;;17.20;97.00;;;;;;4715702;30;20479;-86
2022/09/16 12:53:49;;;;;;;5.75;0.50;;;17.30;96.40;;;;;;4733812;30;20423;-85
2022/09/16 12:56:57;;;;;;;3.55;0.38;;;17.30;96.00;;;;;;4718823;30;20125;-84
2022/09/16 12:59:41;;;;;;;3.55;0.50;;;17.50;96.00;;;;;;4701713;30;20053;-85
2022/09/16 13:12:21;;;;;;;1.35;0.20;;;16.20;99.90;;;;;;4892443;24;20064;-86
2022/09/16 13:15:29;;;;;;;2.75;0.40;;;16.00;99.90;;;;;;4734573;30;20060;-87
2022/09/16 13:24:11;;;;;;;3.80;0.40;;;15.40;99.90;;;;;;4775896;24;20119;-87
2022/09/16 13:30:36;;;;;;;3.15;0.57;;;15.10;99.90;;;;;;4773622;30;20050;-86
2022/09/16 13:33:08;;;;;;;5.88;0.60;;;14.80;99.90;;;;;;4758935;30;20063;-90
2022/09/16 13:35:38;;;;;;;5.78;0.50;;;14.80;99.90;;;;;;4761109;30;20139;-87
2022/09/16 13:38:17;;;;;;;0.93;0.30;;;15.00;99.90;;;;;;4760948;30;20115;-86
2022/09/16 13:40:54;;;;;;;3.90;0.40;;;14.80;99.90;;;;;;4759941;30;20056;-88
2022/09/16 13:43:41;;;;;;;2.70;0.32;;;14.60;99.90;;;;;;4762630;30;20067;-90
2022/09/16 13:46:26;;;;;;;6.25;0.65;;;14.70;99.90;;;;;;4762025;30;20056;-86
2022/09/16 13:49:15;;;;;;;3.00;0.50;;;14.70;99.90;;;;;;4747559;30;20055;-87
2022/09/16 13:51:46;;;;;;;3.25;0.60;;;14.70;99.90;;;;;;4774867;30;20067;-89
2022/09/16 13:54:26;;;;;;;2.75;0.40;;;14.80;99.90;;;;;;4774958;30;20048;-93
2022/09/16 13:57:48;;;;;;;6.82;0.50;;;14.70;99.90;;;;;;4774850;30;20062;-88
2022/09/16 14:00:27;;;;;;;2.42;0.38;;;14.80;99.90;;;;;;4670089;30;20054;-91
2022/09/16 14:02:58;;;;;;;4.00;0.45;;;14.90;99.90;;;;;;4672300;30;20072;-87
2022/09/16 14:05:45;;;;;;;1.58;0.40;;;14.90;99.90;;;;;;4676192;30;20135;-87
2022/09/16 14:09:11;;;;;;;;;;;;;;;;;;;;;
2022/09/16 14:12:01;;;;;;;5.97;0.60;;;14.90;99.90;;;;;;4654497;24;20145;-89
2022/09/16 14:14:27;;;;;;;8.95;0.60;;;15.00;99.90;;;;;;4738162;30;20048;-88
2022/09/16 14:16:54;;;;;;;5.20;1.15;;;15.20;99.90;;;;;;4756140;30;20057;-90
2022/09/16 14:19:39;;;;;;;4.43;0.50;;;15.30;99.90;;;;;;4737362;30;20048;-88
2022/09/16 14:35:55;;;;;;;8.63;0.90;;;14.40;99.90;;;;;;3955158;27;20063;-85
2022/09/16 14:38:35;;;;;;;6.63;1.02;;;14.20;99.90;;;;;;4747296;30;20063;-88
2022/09/16 14:41:20;;;;;;;4.63;1.00;;;14.30;99.90;;;;;;4741531;30;20163;-89
2022/09/16 14:43:49;;;;;;;5.72;0.88;;;14.40;99.90;;;;;;4739458;30;20502;-87
2022/09/16 14:46:25;;;;;;;7.40;0.60;;;14.40;99.90;;;;;;4755604;30;20175;-88
2022/09/16 14:49:15;;;;;;;4.78;0.47;;;14.40;99.90;;;;;;4754602;30;20059;-87
2022/09/16 14:55:30;;;;;;;4.53;0.55;;;14.20;99.90;;;;;;4700828;30;20586;-89
2022/09/16 14:58:58;;;;;;;3.90;0.85;;;14.10;99.90;;;;;;4701718;30;20488;-89
2022/09/16 15:01:26;;;;;;;3.80;0.60;;;14.10;99.90;;;;;;4665853;30;20528;-87
2022/09/16 15:04:17;;;;;;;4.38;0.60;;;14.10;99.90;;;;;;4663158;30;20551;-86
2022/09/16 15:07:03;;;;;;;3.50;0.50;;;14.30;99.90;;;;;;4663474;30;20145;-87
2022/09/16 15:10:03;;;;;;;6.78;0.70;;;14.40;99.90;;;;;;4663738;30;20101;-85